Trent Navigator — PCOV — position and weather

sailwx.info

Track history (hours):
 
Tides and Currents Weather Stations Pressure Air Temp Water Temp Dewpoint Dewpoint Depression Visibility Wind Speed Wind Dir Waves Ship Positions

Trent Navigator

Last reported at 2018-Jul-22 21:58 UTC. Time now 2018-Jul-22 22:01 UTC.
Position N 51°57' E 003°49'.

Length 118 m; draft 6.3 m.

Type: Cargo ship. MMSI: 246867000.

Date/timePositionNaut miles runAvg speedWind from/ knotsBaromVisibWave heightAir tempDewpointWater temp
2018-Jul-22 21:58N 51°57' E 003°49'0 0.0
2018-Jul-22 21:28N 51°57' E 003°49'0 0.1
2018-Jul-22 20:58N 51°57' E 003°49'0 0.1
2018-Jul-22 20:28N 51°57' E 003°49'0 0.1
2018-Jul-22 19:55N 51°57' E 003°49'0 0.1
2018-Jul-22 19:30N 51°57' E 003°49'0 0.1
2018-Jul-22 18:57N 51°57' E 003°49'0 0.0
2018-Jul-22 18:30N 51°57' E 003°49'0 0.1
2018-Jul-22 18:00N 51°57' E 003°49'0 0.0
2018-Jul-22 17:30N 51°57' E 003°49'0 0.0
2018-Jul-22 16:59N 51°57' E 003°49'0 0.0
2018-Jul-22 16:29N 51°57' E 003°49'0 0.0
2018-Jul-22 15:59N 51°57' E 003°49'2 2.4
2018-Jul-22 15:00N 51°58' E 003°45'510.1
2018-Jul-22 14:30N 51°57' E 003°37'510.5
2018-Jul-22 14:00N 51°56' E 003°29'510.6
2018-Jul-22 13:30N 51°54' E 003°20'510.6
2018-Jul-22 13:00N 51°53' E 003°12'610.9
2018-Jul-22 12:30N 51°51' E 003°04'611.2
2018-Jul-22 12:00N 51°49' E 002°55'611.4
2018-Jul-22 11:30N 51°47' E 002°47'611.8
2018-Jul-22 11:00N 51°45' E 002°38'611.9
2018-Jul-22 10:30N 51°40' E 002°31'612.3
2018-Jul-22 10:00N 51°36' E 002°25'612.4
2018-Jul-22 09:30N 51°31' E 002°18'612.4
2018-Jul-22 09:01N 51°26' E 002°12'612.3
2018-Jul-22 08:30N 51°20' E 002°08'612.5
2018-Jul-22 08:00N 51°15' E 002°05'713.0
2018-Jul-22 07:30N 51°11' E 001°56'713.3
2018-Jul-22 07:00N 51°08' E 001°47'713.5
2018-Jul-22 06:30N 51°03' E 001°39'713.3
2018-Jul-22 06:00N 50°58' E 001°32'612.5
2018-Jul-22 05:30N 50°53' E 001°27'612.2
2018-Jul-22 05:00N 50°47' E 001°24'611.5
2018-Jul-22 04:30N 50°42' E 001°20'611.9
2018-Jul-22 04:00N 50°38' E 001°13'611.7
2018-Jul-22 03:30N 50°34' E 001°06'611.7
2018-Jul-22 03:00N 50°30' E 000°59'611.8
2018-Jul-22 02:30N 50°29' E 000°50'611.6
2018-Jul-22 02:00N 50°27' E 000°41'711.4
2018-Jul-22 01:24N 50°25' E 000°31'511.1
2018-Jul-22 00:57N 50°24' E 000°23'510.9
2018-Jul-22 00:30N 50°23' E 000°16'510.7
2018-Jul-22 00:00N 50°21' E 000°08'510.4
2018-Jul-21 23:30N 50°20' W 000°00'510.3
2018-Jul-21 23:00N 50°19' W 000°08'510.1
2018-Jul-21 22:30N 50°17' W 000°15'5 9.9
2018-Jul-21 22:00N 50°16' W 000°23'5 9.6
2018-Jul-21 21:30N 50°14' W 000°30'5 9.4
2018-Jul-21 21:00N 50°13' W 000°37'5 9.4
2018-Jul-21 20:30N 50°12' W 000°44'5 9.4
2018-Jul-21 20:00N 50°11' W 000°51'5 9.6
2018-Jul-21 19:30N 50°09' W 000°59'610.0
2018-Jul-21 18:52N 50°08' W 001°08'610.5
2018-Jul-21 18:16N 50°06' W 001°17'611.1
2018-Jul-21 17:46N 50°04' W 001°26'311.5
2018-Jul-21 17:28N 50°03' W 001°31'611.9
2018-Jul-21 16:59N 50°02' W 001°40'2512.9
2018-Jul-21 15:01N 49°55' W 002°18'212.8
2018-Jul-21 14:53N 49°55' W 002°20'612.7
2018-Jul-21 14:27N 49°53' W 002°29'1012.2
2018-Jul-21 13:36N 49°50' W 002°44'112.2
2018-Jul-21 13:30N 49°50' W 002°46'1111.9
2018-Jul-21 12:37N 49°45' W 003°01'211.9
2018-Jul-21 12:24N 49°44' W 003°04'511.9
2018-Jul-21 12:00N 49°42' W 003°10'611.8
2018-Jul-21 11:30N 49°39' W 003°18'611.6
2018-Jul-21 11:00N 49°36' W 003°26'611.3
2018-Jul-21 10:27N 49°33' W 003°34'6710.9
2018-Jul-21 04:17N 48°58' W 005°03'1310.3
2018-Jul-21 03:00N 48°51' W 005°20'44 8.4
2018-Jul-20 21:44N 48°07' W 005°22'2311.0
2018-Jul-20 19:38N 47°46' W 005°07'1211.1
2018-Jul-20 18:33N 47°36' W 004°59'21310.6
2018-Jul-19 22:31N 44°25' W 002°41'010.8
2018-Jul-19 22:30N 44°25' W 002°41'611.1
2018-Jul-19 22:00N 44°20' W 002°37'510.9
2018-Jul-19 21:30N 44°15' W 002°34'510.7
2018-Jul-19 21:00N 44°10' W 002°31'510.8
2018-Jul-19 20:30N 44°06' W 002°27'510.8
2018-Jul-19 20:00N 44°01' W 002°24'510.7
2018-Jul-19 19:30N 43°56' W 002°21'510.5
2018-Jul-19 19:00N 43°51' W 002°17'510.7
2018-Jul-19 18:30N 43°47' W 002°14'510.4
2018-Jul-19 18:00N 43°42' W 002°11'510.0
2018-Jul-19 17:30N 43°37' W 002°08'5 9.9
2018-Jul-19 17:00N 43°33' W 002°05'510.2
2018-Jul-19 16:30N 43°28' W 002°01'510.4
2018-Jul-19 16:00N 43°24' W 001°58'5 8.9
2018-Jul-19 15:28N 43°19' W 001°55'1 1.6
2018-Jul-19 14:59N 43°19' W 001°54'0 0.0
2018-Jul-19 14:29N 43°19' W 001°54'0 0.0
2018-Jul-19 13:23N 43°19' W 001°54'0 0.0
2018-Jul-19 12:59N 43°19' W 001°54'0 0.0
2018-Jul-19 12:29N 43°19' W 001°54'0 0.0
2018-Jul-19 11:59N 43°19' W 001°54'0 0.0
2018-Jul-19 11:26N 43°19' W 001°54'0 0.0
2018-Jul-19 10:59N 43°19' W 001°54'0 0.0
2018-Jul-19 10:29N 43°19' W 001°54'0 0.0
2018-Jul-19 09:59N 43°19' W 001°54'0 0.0
2018-Jul-19 09:29N 43°19' W 001°54'0 0.0
2018-Jul-19 08:59N 43°19' W 001°54'0 0.0
2018-Jul-19 08:29N 43°19' W 001°54'0 0.0
2018-Jul-19 07:56N 43°19' W 001°54'0 0.0
2018-Jul-19 07:29N 43°19' W 001°54'0 0.0
2018-Jul-19 06:59N 43°19' W 001°54'0 0.0
2018-Jul-19 06:26N 43°19' W 001°54'0 0.0
2018-Jul-19 05:38N 43°19' W 001°54'0 0.0
2018-Jul-19 05:29N 43°19' W 001°54'0 0.0
2018-Jul-19 04:41N 43°19' W 001°54'0 0.0
2018-Jul-19 04:29N 43°19' W 001°54'0 0.0
2018-Jul-19 03:53N 43°19' W 001°54'0 0.0
2018-Jul-19 03:29N 43°19' W 001°54'0 0.0
2018-Jul-19 02:59N 43°19' W 001°54'0 0.0
2018-Jul-19 02:29N 43°19' W 001°54'0 0.0
2018-Jul-19 01:56N 43°19' W 001°54'0 0.0
2018-Jul-19 01:29N 43°19' W 001°54'0 0.0
2018-Jul-19 00:59N 43°19' W 001°54'0 0.0
2018-Jul-19 00:29N 43°19' W 001°54'0 0.0
2018-Jul-18 23:59N 43°19' W 001°54'0 0.0
2018-Jul-18 23:23N 43°19' W 001°54'0 0.0
2018-Jul-18 22:59N 43°19' W 001°54'0 0.0
2018-Jul-18 22:29N 43°19' W 001°54'0 0.0
2018-Jul-18 21:59N 43°19' W 001°54'0 0.0
2018-Jul-18 21:29N 43°19' W 001°54'0 0.0
2018-Jul-18 20:59N 43°19' W 001°54'0 0.0
2018-Jul-18 20:29N 43°19' W 001°54'0 0.0
2018-Jul-18 19:56N 43°19' W 001°54'0 0.0
2018-Jul-18 19:29N 43°19' W 001°54'0 0.0
2018-Jul-18 18:59N 43°19' W 001°54'0 0.0
2018-Jul-18 18:29N 43°19' W 001°54'0 0.0
2018-Jul-18 17:59N 43°19' W 001°54'0 0.0
2018-Jul-18 17:29N 43°19' W 001°54'0 0.0
2018-Jul-18 16:59N 43°19' W 001°54'0 0.0
2018-Jul-18 16:29N 43°19' W 001°54'0 0.0
2018-Jul-18 15:59N 43°19' W 001°54'0 0.0
2018-Jul-18 15:29N 43°19' W 001°54'0 0.0
2018-Jul-18 14:53N 43°19' W 001°54'0 0.0
2018-Jul-18 14:29N 43°19' W 001°54'0 0.0
2018-Jul-18 13:29N 43°19' W 001°54'0 0.0
2018-Jul-18 12:59N 43°19' W 001°54'0 0.0
2018-Jul-18 12:23N 43°19' W 001°54'0 0.0
2018-Jul-18 11:59N 43°19' W 001°54'0 0.0
2018-Jul-18 11:29N 43°19' W 001°54'0 0.0
2018-Jul-18 10:26N 43°19' W 001°54'0 0.0
2018-Jul-18 09:59N 43°19' W 001°54'0 0.0
2018-Jul-18 09:29N 43°19' W 001°54'0 0.0
2018-Jul-18 08:59N 43°19' W 001°54'0 0.0
2018-Jul-18 08:26N 43°19' W 001°54'0 0.0
2018-Jul-18 07:56N 43°19' W 001°54'0 0.0
2018-Jul-18 07:29N 43°19' W 001°54'0 0.0
2018-Jul-18 06:59N 43°19' W 001°54'0 0.0
2018-Jul-18 06:29N 43°19' W 001°54'0 0.0
2018-Jul-18 05:59N 43°19' W 001°54'0 0.0
2018-Jul-18 05:29N 43°19' W 001°54'0 0.0
2018-Jul-18 04:59N 43°19' W 001°54'0 0.0
2018-Jul-18 04:29N 43°19' W 001°54'0 0.0
2018-Jul-18 03:59N 43°19' W 001°54'0 0.0
2018-Jul-18 03:29N 43°19' W 001°54'0 0.0
2018-Jul-18 02:56N 43°19' W 001°54'0 0.0
2018-Jul-18 02:29N 43°19' W 001°54'0 0.0
2018-Jul-18 01:59N 43°19' W 001°54'0 0.0
2018-Jul-18 01:29N 43°19' W 001°54'0 0.0
2018-Jul-18 00:59N 43°19' W 001°54'0 0.0
2018-Jul-18 00:29N 43°19' W 001°54'0 0.0
2018-Jul-17 23:59N 43°19' W 001°54'0 0.0
2018-Jul-17 23:20N 43°19' W 001°54'0 0.0
2018-Jul-17 22:59N 43°19' W 001°54'0 0.0
2018-Jul-17 22:29N 43°19' W 001°54'0 0.0
2018-Jul-17 21:59N 43°19' W 001°54'0 0.0
2018-Jul-17 21:29N 43°19' W 001°54'0 0.0
2018-Jul-17 20:59N 43°19' W 001°54'0 0.0
2018-Jul-17 20:29N 43°19' W 001°54'0 0.0
2018-Jul-17 19:59N 43°19' W 001°54'0 0.0
2018-Jul-17 19:29N 43°19' W 001°54'0 0.0
2018-Jul-17 18:59N 43°19' W 001°54'0 0.0
2018-Jul-17 18:26N 43°19' W 001°54'0 0.0
2018-Jul-17 17:53N 43°19' W 001°54'0 0.0
2018-Jul-17 17:29N 43°19' W 001°54'0 0.0
2018-Jul-17 16:59N 43°19' W 001°54'0 0.0
2018-Jul-17 15:11N 43°19' W 001°54'0 0.0
2018-Jul-17 14:56N 43°19' W 001°54'0 0.0
2018-Jul-17 14:29N 43°19' W 001°54'0 0.0
2018-Jul-17 13:58N 43°19' W 001°54'0 0.0
2018-Jul-17 13:28N 43°19' W 001°54'0 0.0
2018-Jul-17 12:58N 43°19' W 001°54'0 0.0
2018-Jul-17 12:25N 43°19' W 001°54'0 0.0
2018-Jul-17 11:58N 43°19' W 001°54'0 0.0
2018-Jul-17 11:28N 43°19' W 001°54'0 0.0
2018-Jul-17 10:58N 43°19' W 001°54'0 0.0
2018-Jul-17 10:23N 43°19' W 001°54'0 0.0
2018-Jul-17 09:57N 43°19' W 001°54'0 0.0
2018-Jul-17 09:29N 43°19' W 001°54'0 0.0
2018-Jul-17 08:57N 43°19' W 001°54'0 0.0
2018-Jul-17 08:26N 43°19' W 001°54'0 0.0
2018-Jul-17 08:00N 43°19' W 001°54'0 0.0
2018-Jul-17 07:20N 43°19' W 001°54'0 0.8
2018-Jul-17 07:01N 43°19' W 001°54'2 4.1
2018-Jul-17 06:30N 43°21' W 001°56'1 1.0
2018-Jul-17 05:59N 43°21' W 001°56'0 0.1
2018-Jul-17 05:30N 43°21' W 001°55'0 0.0
2018-Jul-17 05:00N 43°21' W 001°55'0 0.0
2018-Jul-17 04:29N 43°21' W 001°55'0 0.0
2018-Jul-17 03:59N 43°21' W 001°55'0 0.0
2018-Jul-17 03:29N 43°21' W 001°55'0 0.0
2018-Jul-17 02:58N 43°21' W 001°55'0 0.0
2018-Jul-17 02:31N 43°21' W 001°55'0 0.0
2018-Jul-17 02:00N 43°21' W 001°55'0 0.0
2018-Jul-17 01:30N 43°21' W 001°55'0 0.0
2018-Jul-17 00:59N 43°21' W 001°55'0 0.0
2018-Jul-17 00:28N 43°21' W 001°55'0 0.0
2018-Jul-16 23:30N 43°21' W 001°55'0 0.0
2018-Jul-16 22:59N 43°21' W 001°55'0 0.1
2018-Jul-16 22:29N 43°21' W 001°55'0 0.0
2018-Jul-16 21:59N 43°21' W 001°55'0 0.0
2018-Jul-16 21:29N 43°21' W 001°55'0 0.0
2018-Jul-16 20:59N 43°21' W 001°55'0 0.0
2018-Jul-16 20:29N 43°21' W 001°55'0 0.0
2018-Jul-16 19:59N 43°21' W 001°55'0 0.0
2018-Jul-16 19:29N 43°21' W 001°55'0 0.0
2018-Jul-16 18:59N 43°21' W 001°55'0 0.0
2018-Jul-16 18:29N 43°21' W 001°55'0 0.0
2018-Jul-16 17:59N 43°21' W 001°55'0 0.0
2018-Jul-16 17:29N 43°21' W 001°55'0 0.0
2018-Jul-16 16:59N 43°21' W 001°55'0 0.0
2018-Jul-16 16:29N 43°21' W 001°55'0 0.0
2018-Jul-16 15:59N 43°21' W 001°55'0 0.0
2018-Jul-16 15:29N 43°21' W 001°55'0 0.0
2018-Jul-16 14:59N 43°21' W 001°55'0 0.0
2018-Jul-16 14:29N 43°21' W 001°55'0 0.1
2018-Jul-16 13:59N 43°21' W 001°55'0 0.0
2018-Jul-16 13:29N 43°21' W 001°55'0 0.0
2018-Jul-16 12:59N 43°21' W 001°55'0 0.0
2018-Jul-16 12:29N 43°21' W 001°55'0 0.0
2018-Jul-16 11:59N 43°21' W 001°55'0 0.0
2018-Jul-16 11:29N 43°21' W 001°55'0 0.0
2018-Jul-16 10:59N 43°21' W 001°55'0 0.0
2018-Jul-16 10:29N 43°21' W 001°55'0 0.0
2018-Jul-16 09:59N 43°21' W 001°55'0 0.0
2018-Jul-16 09:29N 43°21' W 001°55'0 0.0
2018-Jul-16 08:58N 43°21' W 001°55'0 0.0
2018-Jul-16 08:28N 43°21' W 001°55'0 0.0
2018-Jul-16 07:58N 43°21' W 001°55'0 0.0
2018-Jul-16 07:28N 43°21' W 001°55'0 0.0
2018-Jul-16 06:58N 43°21' W 001°55'0 0.0
2018-Jul-16 06:30N 43°21' W 001°55'0 0.0
2018-Jul-16 06:00N 43°21' W 001°55'0 0.0
2018-Jul-16 05:28N 43°21' W 001°55'0 0.0
2018-Jul-16 04:58N 43°21' W 001°55'0 0.0
2018-Jul-16 04:27N 43°21' W 001°55'0 0.0
2018-Jul-16 03:56N 43°21' W 001°55'0 0.0
2018-Jul-16 03:29N 43°21' W 001°55'0 0.0
2018-Jul-16 02:59N 43°21' W 001°55'0 0.0
2018-Jul-16 02:29N 43°21' W 001°55'0 0.0
2018-Jul-16 01:59N 43°21' W 001°55'0 0.0
2018-Jul-16 01:29N 43°21' W 001°55'0 0.0
2018-Jul-16 01:00N 43°21' W 001°55'0 0.0
2018-Jul-16 00:28N 43°21' W 001°55'0 0.1
2018-Jul-15 23:58N 43°21' W 001°55'0 0.0
2018-Jul-15 23:28N 43°21' W 001°55'0 0.0
2018-Jul-15 23:00N 43°21' W 001°55'0 0.0
2018-Jul-15 22:30N 43°21' W 001°55'0 0.0
2018-Jul-15 22:00N 43°21' W 001°55'0 0.0
2018-Jul-15 21:29N 43°21' W 001°55'0 0.1
2018-Jul-15 20:59N 43°21' W 001°55'0 0.1
2018-Jul-15 20:29N 43°21' W 001°55'0 0.0
2018-Jul-15 19:59N 43°21' W 001°55'0 0.0
2018-Jul-15 19:29N 43°21' W 001°55'0 0.1
2018-Jul-15 18:59N 43°21' W 001°55'0 0.0
2018-Jul-15 18:29N 43°21' W 001°55'0 0.0
2018-Jul-15 17:59N 43°21' W 001°55'0 0.0
2018-Jul-15 17:29N 43°21' W 001°56'0 0.0
2018-Jul-15 16:59N 43°21' W 001°55'0 0.0
2018-Jul-15 16:29N 43°21' W 001°55'0 0.0
2018-Jul-15 15:59N 43°21' W 001°55'0 0.0
2018-Jul-15 15:28N 43°21' W 001°55'0 0.0
2018-Jul-15 14:58N 43°21' W 001°56'0 0.0
2018-Jul-15 14:25N 43°21' W 001°55'0 0.0
2018-Jul-15 13:58N 43°21' W 001°55'0 0.1
2018-Jul-15 13:28N 43°21' W 001°56'0 0.0
2018-Jul-15 12:58N 43°21' W 001°56'0 0.0
2018-Jul-15 12:28N 43°21' W 001°56'0 0.0
2018-Jul-15 11:58N 43°21' W 001°56'0 0.0
2018-Jul-15 11:28N 43°21' W 001°56'0 0.0
2018-Jul-15 10:58N 43°21' W 001°56'0 0.0
2018-Jul-15 10:28N 43°21' W 001°56'0 0.0
2018-Jul-15 09:58N 43°21' W 001°56'0 0.0
2018-Jul-15 09:28N 43°21' W 001°56'0 0.0
2018-Jul-15 08:58N 43°21' W 001°56'0 0.1
2018-Jul-15 08:28N 43°21' W 001°56'0 0.1
2018-Jul-15 07:58N 43°21' W 001°56'0 0.0
2018-Jul-15 07:28N 43°21' W 001°56'0 0.0
2018-Jul-15 07:00N 43°21' W 001°56'0 0.0
2018-Jul-15 06:30N 43°21' W 001°56'0 0.0
2018-Jul-15 06:01N 43°21' W 001°56'0 0.1
2018-Jul-15 05:29N 43°21' W 001°56'0 0.1
2018-Jul-15 04:59N 43°21' W 001°56'0 0.1
2018-Jul-15 04:28N 43°21' W 001°56'0 0.1
2018-Jul-15 04:00N 43°21' W 001°56'0 0.1
2018-Jul-15 03:30N 43°21' W 001°56'0 0.1
2018-Jul-15 02:58N 43°21' W 001°56'0 0.1
2018-Jul-15 02:28N 43°21' W 001°56'0 0.9
2018-Jul-15 02:01N 43°21' W 001°56'3 6.7
2018-Jul-15 01:30N 43°22' W 002°00'510.4
2018-Jul-15 01:00N 43°24' W 002°07'510.7
2018-Jul-15 00:30N 43°26' W 002°14'510.7
2018-Jul-15 00:00N 43°27' W 002°21'510.3
2018-Jul-14 23:30N 43°29' W 002°28'510.2
2018-Jul-14 23:00N 43°31' W 002°34'510.0
2018-Jul-14 22:30N 43°32' W 002°41'510.3
2018-Jul-14 22:00N 43°34' W 002°48'510.4
2018-Jul-14 21:30N 43°36' W 002°54'510.1
2018-Jul-14 21:00N 43°37' W 003°01'5 9.8
2018-Jul-14 20:30N 43°37' W 003°08'5 9.6
2018-Jul-14 20:00N 43°38' W 003°15'5 9.7
2018-Jul-14 19:30N 43°38' W 003°21'510.0
2018-Jul-14 19:00N 43°39' W 003°28'5 9.8
2018-Jul-14 18:30N 43°39' W 003°35'5 9.1
2018-Jul-14 18:00N 43°40' W 003°41'5 9.4
2018-Jul-14 17:30N 43°40' W 003°48'5 9.4
2018-Jul-14 17:00N 43°41' W 003°54'5 9.4
2018-Jul-14 16:30N 43°41' W 004°01'5 9.7
2018-Jul-14 16:01N 43°42' W 004°07'5 9.6
2018-Jul-14 15:30N 43°42' W 004°14'5 9.6
2018-Jul-14 14:56N 43°43' W 004°21'21 9.8
2018-Jul-14 12:47N 43°45' W 004°50'3 9.6
2018-Jul-14 12:30N 43°45' W 004°54'15 9.6
2018-Jul-14 10:54N 43°46' W 005°15'4 9.3
2018-Jul-14 10:26N 43°47' W 005°21'5 9.3
2018-Jul-14 09:54N 43°47' W 005°28'5 9.6
2018-Jul-14 09:23N 43°47' W 005°35'4 9.6
2018-Jul-14 08:57N 43°48' W 005°41'5 9.3
2018-Jul-14 08:26N 43°49' W 005°47'4 9.3
2018-Jul-14 08:00N 43°49' W 005°53'  
Track history (hours):
 
Tides and Currents Weather Stations Pressure Air Temp Water Temp Dewpoint Dewpoint Depression Visibility Wind Speed Wind Dir Waves Ship Positions

Trent Navigator

Last reported at 2018-Jul-22 21:58 UTC. Time now 2018-Jul-22 22:01 UTC.
Position N 51°57' E 003°49'.

Length 118 m; draft 6.3 m.

Type: Cargo ship. MMSI: 246867000.

Date/timePositionNaut miles runAvg speedWind from/ knotsBaromVisibWave heightAir tempDewpointWater temp
2018-Jul-22 21:58N 51°57' E 003°49'0 0.0
2018-Jul-22 21:28N 51°57' E 003°49'0 0.1
2018-Jul-22 20:58N 51°57' E 003°49'0 0.1
2018-Jul-22 20:28N 51°57' E 003°49'0 0.1
2018-Jul-22 19:55N 51°57' E 003°49'0 0.1
2018-Jul-22 19:30N 51°57' E 003°49'0 0.1
2018-Jul-22 18:57N 51°57' E 003°49'0 0.0
2018-Jul-22 18:30N 51°57' E 003°49'0 0.1
2018-Jul-22 18:00N 51°57' E 003°49'0 0.0
2018-Jul-22 17:30N 51°57' E 003°49'0 0.0
2018-Jul-22 16:59N 51°57' E 003°49'0 0.0
2018-Jul-22 16:29N 51°57' E 003°49'0 0.0
2018-Jul-22 15:59N 51°57' E 003°49'2 2.4
2018-Jul-22 15:00N 51°58' E 003°45'510.1
2018-Jul-22 14:30N 51°57' E 003°37'510.5
2018-Jul-22 14:00N 51°56' E 003°29'510.6
2018-Jul-22 13:30N 51°54' E 003°20'510.6
2018-Jul-22 13:00N 51°53' E 003°12'610.9
2018-Jul-22 12:30N 51°51' E 003°04'611.2
2018-Jul-22 12:00N 51°49' E 002°55'611.4
2018-Jul-22 11:30N 51°47' E 002°47'611.8
2018-Jul-22 11:00N 51°45' E 002°38'611.9
2018-Jul-22 10:30N 51°40' E 002°31'612.3
2018-Jul-22 10:00N 51°36' E 002°25'612.4
2018-Jul-22 09:30N 51°31' E 002°18'612.4
2018-Jul-22 09:01N 51°26' E 002°12'612.3
2018-Jul-22 08:30N 51°20' E 002°08'612.5
2018-Jul-22 08:00N 51°15' E 002°05'713.0
2018-Jul-22 07:30N 51°11' E 001°56'713.3
2018-Jul-22 07:00N 51°08' E 001°47'713.5
2018-Jul-22 06:30N 51°03' E 001°39'713.3
2018-Jul-22 06:00N 50°58' E 001°32'612.5
2018-Jul-22 05:30N 50°53' E 001°27'612.2
2018-Jul-22 05:00N 50°47' E 001°24'611.5
2018-Jul-22 04:30N 50°42' E 001°20'611.9
2018-Jul-22 04:00N 50°38' E 001°13'611.7
2018-Jul-22 03:30N 50°34' E 001°06'611.7
2018-Jul-22 03:00N 50°30' E 000°59'611.8
2018-Jul-22 02:30N 50°29' E 000°50'611.6
2018-Jul-22 02:00N 50°27' E 000°41'711.4
2018-Jul-22 01:24N 50°25' E 000°31'511.1
2018-Jul-22 00:57N 50°24' E 000°23'510.9
2018-Jul-22 00:30N 50°23' E 000°16'510.7
2018-Jul-22 00:00N 50°21' E 000°08'510.4
2018-Jul-21 23:30N 50°20' W 000°00'510.3
2018-Jul-21 23:00N 50°19' W 000°08'510.1
2018-Jul-21 22:30N 50°17' W 000°15'5 9.9
2018-Jul-21 22:00N 50°16' W 000°23'5 9.6
2018-Jul-21 21:30N 50°14' W 000°30'5 9.4
2018-Jul-21 21:00N 50°13' W 000°37'5 9.4
2018-Jul-21 20:30N 50°12' W 000°44'5 9.4
2018-Jul-21 20:00N 50°11' W 000°51'5 9.6
2018-Jul-21 19:30N 50°09' W 000°59'610.0
2018-Jul-21 18:52N 50°08' W 001°08'610.5
2018-Jul-21 18:16N 50°06' W 001°17'611.1
2018-Jul-21 17:46N 50°04' W 001°26'311.5
2018-Jul-21 17:28N 50°03' W 001°31'611.9
2018-Jul-21 16:59N 50°02' W 001°40'2512.9
2018-Jul-21 15:01N 49°55' W 002°18'212.8
2018-Jul-21 14:53N 49°55' W 002°20'612.7
2018-Jul-21 14:27N 49°53' W 002°29'1012.2
2018-Jul-21 13:36N 49°50' W 002°44'112.2
2018-Jul-21 13:30N 49°50' W 002°46'1111.9
2018-Jul-21 12:37N 49°45' W 003°01'211.9
2018-Jul-21 12:24N 49°44' W 003°04'511.9
2018-Jul-21 12:00N 49°42' W 003°10'611.8
2018-Jul-21 11:30N 49°39' W 003°18'611.6
2018-Jul-21 11:00N 49°36' W 003°26'611.3
2018-Jul-21 10:27N 49°33' W 003°34'6710.9
2018-Jul-21 04:17N 48°58' W 005°03'1310.3
2018-Jul-21 03:00N 48°51' W 005°20'44 8.4
2018-Jul-20 21:44N 48°07' W 005°22'2311.0
2018-Jul-20 19:38N 47°46' W 005°07'1211.1
2018-Jul-20 18:33N 47°36' W 004°59'21310.6
2018-Jul-19 22:31N 44°25' W 002°41'010.8
2018-Jul-19 22:30N 44°25' W 002°41'611.1
2018-Jul-19 22:00N 44°20' W 002°37'510.9
2018-Jul-19 21:30N 44°15' W 002°34'510.7
2018-Jul-19 21:00N 44°10' W 002°31'510.8
2018-Jul-19 20:30N 44°06' W 002°27'510.8
2018-Jul-19 20:00N 44°01' W 002°24'510.7
2018-Jul-19 19:30N 43°56' W 002°21'510.5
2018-Jul-19 19:00N 43°51' W 002°17'510.7
2018-Jul-19 18:30N 43°47' W 002°14'510.4
2018-Jul-19 18:00N 43°42' W 002°11'510.0
2018-Jul-19 17:30N 43°37' W 002°08'5 9.9
2018-Jul-19 17:00N 43°33' W 002°05'510.2
2018-Jul-19 16:30N 43°28' W 002°01'510.4
2018-Jul-19 16:00N 43°24' W 001°58'5 8.9
2018-Jul-19 15:28N 43°19' W 001°55'1 1.6
2018-Jul-19 14:59N 43°19' W 001°54'0 0.0
2018-Jul-19 14:29N 43°19' W 001°54'0 0.0
2018-Jul-19 13:23N 43°19' W 001°54'0 0.0
2018-Jul-19 12:59N 43°19' W 001°54'0 0.0
2018-Jul-19 12:29N 43°19' W 001°54'0 0.0
2018-Jul-19 11:59N 43°19' W 001°54'0 0.0
2018-Jul-19 11:26N 43°19' W 001°54'0 0.0
2018-Jul-19 10:59N 43°19' W 001°54'0 0.0
2018-Jul-19 10:29N 43°19' W 001°54'0 0.0
2018-Jul-19 09:59N 43°19' W 001°54'0 0.0
2018-Jul-19 09:29N 43°19' W 001°54'0 0.0
2018-Jul-19 08:59N 43°19' W 001°54'0 0.0
2018-Jul-19 08:29N 43°19' W 001°54'0 0.0
2018-Jul-19 07:56N 43°19' W 001°54'0 0.0
2018-Jul-19 07:29N 43°19' W 001°54'0 0.0
2018-Jul-19 06:59N 43°19' W 001°54'0 0.0
2018-Jul-19 06:26N 43°19' W 001°54'0 0.0
2018-Jul-19 05:38N 43°19' W 001°54'0 0.0
2018-Jul-19 05:29N 43°19' W 001°54'0 0.0
2018-Jul-19 04:41N 43°19' W 001°54'0 0.0
2018-Jul-19 04:29N 43°19' W 001°54'0 0.0
2018-Jul-19 03:53N 43°19' W 001°54'0 0.0
2018-Jul-19 03:29N 43°19' W 001°54'0 0.0
2018-Jul-19 02:59N 43°19' W 001°54'0 0.0
2018-Jul-19 02:29N 43°19' W 001°54'0 0.0
2018-Jul-19 01:56N 43°19' W 001°54'0 0.0
2018-Jul-19 01:29N 43°19' W 001°54'0 0.0
2018-Jul-19 00:59N 43°19' W 001°54'0 0.0
2018-Jul-19 00:29N 43°19' W 001°54'0 0.0
2018-Jul-18 23:59N 43°19' W 001°54'0 0.0
2018-Jul-18 23:23N 43°19' W 001°54'0 0.0
2018-Jul-18 22:59N 43°19' W 001°54'0 0.0
2018-Jul-18 22:29N 43°19' W 001°54'0 0.0
2018-Jul-18 21:59N 43°19' W 001°54'0 0.0
2018-Jul-18 21:29N 43°19' W 001°54'0 0.0
2018-Jul-18 20:59N 43°19' W 001°54'0 0.0
2018-Jul-18 20:29N 43°19' W 001°54'0 0.0
2018-Jul-18 19:56N 43°19' W 001°54'0 0.0
2018-Jul-18 19:29N 43°19' W 001°54'0 0.0
2018-Jul-18 18:59N 43°19' W 001°54'0 0.0
2018-Jul-18 18:29N 43°19' W 001°54'0 0.0
2018-Jul-18 17:59N 43°19' W 001°54'0 0.0
2018-Jul-18 17:29N 43°19' W 001°54'0 0.0
2018-Jul-18 16:59N 43°19' W 001°54'0 0.0
2018-Jul-18 16:29N 43°19' W 001°54'0 0.0
2018-Jul-18 15:59N 43°19' W 001°54'0 0.0
2018-Jul-18 15:29N 43°19' W 001°54'0 0.0
2018-Jul-18 14:53N 43°19' W 001°54'0 0.0
2018-Jul-18 14:29N 43°19' W 001°54'0 0.0
2018-Jul-18 13:29N 43°19' W 001°54'0 0.0
2018-Jul-18 12:59N 43°19' W 001°54'0 0.0
2018-Jul-18 12:23N 43°19' W 001°54'0 0.0
2018-Jul-18 11:59N 43°19' W 001°54'0 0.0
2018-Jul-18 11:29N 43°19' W 001°54'0 0.0
2018-Jul-18 10:26N 43°19' W 001°54'0 0.0
2018-Jul-18 09:59N 43°19' W 001°54'0 0.0
2018-Jul-18 09:29N 43°19' W 001°54'0 0.0
2018-Jul-18 08:59N 43°19' W 001°54'0 0.0
2018-Jul-18 08:26N 43°19' W 001°54'0 0.0
2018-Jul-18 07:56N 43°19' W 001°54'0 0.0
2018-Jul-18 07:29N 43°19' W 001°54'0 0.0
2018-Jul-18 06:59N 43°19' W 001°54'0 0.0
2018-Jul-18 06:29N 43°19' W 001°54'0 0.0
2018-Jul-18 05:59N 43°19' W 001°54'0 0.0
2018-Jul-18 05:29N 43°19' W 001°54'0 0.0
2018-Jul-18 04:59N 43°19' W 001°54'0 0.0
2018-Jul-18 04:29N 43°19' W 001°54'0 0.0
2018-Jul-18 03:59N 43°19' W 001°54'0 0.0
2018-Jul-18 03:29N 43°19' W 001°54'0 0.0
2018-Jul-18 02:56N 43°19' W 001°54'0 0.0
2018-Jul-18 02:29N 43°19' W 001°54'0 0.0
2018-Jul-18 01:59N 43°19' W 001°54'0 0.0
2018-Jul-18 01:29N 43°19' W 001°54'0 0.0
2018-Jul-18 00:59N 43°19' W 001°54'0 0.0
2018-Jul-18 00:29N 43°19' W 001°54'0 0.0
2018-Jul-17 23:59N 43°19' W 001°54'0 0.0
2018-Jul-17 23:20N 43°19' W 001°54'0 0.0
2018-Jul-17 22:59N 43°19' W 001°54'0 0.0
2018-Jul-17 22:29N 43°19' W 001°54'0 0.0
2018-Jul-17 21:59N 43°19' W 001°54'0 0.0
2018-Jul-17 21:29N 43°19' W 001°54'0 0.0
2018-Jul-17 20:59N 43°19' W 001°54'0 0.0
2018-Jul-17 20:29N 43°19' W 001°54'0 0.0
2018-Jul-17 19:59N 43°19' W 001°54'0 0.0
2018-Jul-17 19:29N 43°19' W 001°54'0 0.0
2018-Jul-17 18:59N 43°19' W 001°54'0 0.0
2018-Jul-17 18:26N 43°19' W 001°54'0 0.0
2018-Jul-17 17:53N 43°19' W 001°54'0 0.0
2018-Jul-17 17:29N 43°19' W 001°54'0 0.0
2018-Jul-17 16:59N 43°19' W 001°54'0 0.0
2018-Jul-17 15:11N 43°19' W 001°54'0 0.0
2018-Jul-17 14:56N 43°19' W 001°54'0 0.0
2018-Jul-17 14:29N 43°19' W 001°54'0 0.0
2018-Jul-17 13:58N 43°19' W 001°54'0 0.0
2018-Jul-17 13:28N 43°19' W 001°54'0 0.0
2018-Jul-17 12:58N 43°19' W 001°54'0 0.0
2018-Jul-17 12:25N 43°19' W 001°54'0 0.0
2018-Jul-17 11:58N 43°19' W 001°54'0 0.0
2018-Jul-17 11:28N 43°19' W 001°54'0 0.0
2018-Jul-17 10:58N 43°19' W 001°54'0 0.0
2018-Jul-17 10:23N 43°19' W 001°54'0 0.0
2018-Jul-17 09:57N 43°19' W 001°54'0 0.0
2018-Jul-17 09:29N 43°19' W 001°54'0 0.0
2018-Jul-17 08:57N 43°19' W 001°54'0 0.0
2018-Jul-17 08:26N 43°19' W 001°54'0 0.0
2018-Jul-17 08:00N 43°19' W 001°54'0 0.0
2018-Jul-17 07:20N 43°19' W 001°54'0 0.8
2018-Jul-17 07:01N 43°19' W 001°54'2 4.1
2018-Jul-17 06:30N 43°21' W 001°56'1 1.0
2018-Jul-17 05:59N 43°21' W 001°56'0 0.1
2018-Jul-17 05:30N 43°21' W 001°55'0 0.0
2018-Jul-17 05:00N 43°21' W 001°55'0 0.0
2018-Jul-17 04:29N 43°21' W 001°55'0 0.0
2018-Jul-17 03:59N 43°21' W 001°55'0 0.0
2018-Jul-17 03:29N 43°21' W 001°55'0 0.0
2018-Jul-17 02:58N 43°21' W 001°55'0 0.0
2018-Jul-17 02:31N 43°21' W 001°55'0 0.0
2018-Jul-17 02:00N 43°21' W 001°55'0 0.0
2018-Jul-17 01:30N 43°21' W 001°55'0 0.0
2018-Jul-17 00:59N 43°21' W 001°55'0 0.0
2018-Jul-17 00:28N 43°21' W 001°55'0 0.0
2018-Jul-16 23:30N 43°21' W 001°55'0 0.0
2018-Jul-16 22:59N 43°21' W 001°55'0 0.1
2018-Jul-16 22:29N 43°21' W 001°55'0 0.0
2018-Jul-16 21:59N 43°21' W 001°55'0 0.0
2018-Jul-16 21:29N 43°21' W 001°55'0 0.0
2018-Jul-16 20:59N 43°21' W 001°55'0 0.0
2018-Jul-16 20:29N 43°21' W 001°55'0 0.0
2018-Jul-16 19:59N 43°21' W 001°55'0 0.0
2018-Jul-16 19:29N 43°21' W 001°55'0 0.0
2018-Jul-16 18:59N 43°21' W 001°55'0 0.0
2018-Jul-16 18:29N 43°21' W 001°55'0 0.0
2018-Jul-16 17:59N 43°21' W 001°55'0 0.0
2018-Jul-16 17:29N 43°21' W 001°55'0 0.0
2018-Jul-16 16:59N 43°21' W 001°55'0 0.0
2018-Jul-16 16:29N 43°21' W 001°55'0 0.0
2018-Jul-16 15:59N 43°21' W 001°55'0 0.0
2018-Jul-16 15:29N 43°21' W 001°55'0 0.0
2018-Jul-16 14:59N 43°21' W 001°55'0 0.0
2018-Jul-16 14:29N 43°21' W 001°55'0 0.1
2018-Jul-16 13:59N 43°21' W 001°55'0 0.0
2018-Jul-16 13:29N 43°21' W 001°55'0 0.0
2018-Jul-16 12:59N 43°21' W 001°55'0 0.0
2018-Jul-16 12:29N 43°21' W 001°55'0 0.0
2018-Jul-16 11:59N 43°21' W 001°55'0 0.0
2018-Jul-16 11:29N 43°21' W 001°55'0 0.0
2018-Jul-16 10:59N 43°21' W 001°55'0 0.0
2018-Jul-16 10:29N 43°21' W 001°55'0 0.0
2018-Jul-16 09:59N 43°21' W 001°55'0 0.0
2018-Jul-16 09:29N 43°21' W 001°55'0 0.0
2018-Jul-16 08:58N 43°21' W 001°55'0 0.0
2018-Jul-16 08:28N 43°21' W 001°55'0 0.0
2018-Jul-16 07:58N 43°21' W 001°55'0 0.0
2018-Jul-16 07:28N 43°21' W 001°55'0 0.0
2018-Jul-16 06:58N 43°21' W 001°55'0 0.0
2018-Jul-16 06:30N 43°21' W 001°55'0 0.0
2018-Jul-16 06:00N 43°21' W 001°55'0 0.0
2018-Jul-16 05:28N 43°21' W 001°55'0 0.0
2018-Jul-16 04:58N 43°21' W 001°55'0 0.0
2018-Jul-16 04:27N 43°21' W 001°55'0 0.0
2018-Jul-16 03:56N 43°21' W 001°55'0 0.0
2018-Jul-16 03:29N 43°21' W 001°55'0 0.0
2018-Jul-16 02:59N 43°21' W 001°55'0 0.0
2018-Jul-16 02:29N 43°21' W 001°55'0 0.0
2018-Jul-16 01:59N 43°21' W 001°55'0 0.0
2018-Jul-16 01:29N 43°21' W 001°55'0 0.0
2018-Jul-16 01:00N 43°21' W 001°55'0 0.0
2018-Jul-16 00:28N 43°21' W 001°55'0 0.1
2018-Jul-15 23:58N 43°21' W 001°55'0 0.0
2018-Jul-15 23:28N 43°21' W 001°55'0 0.0
2018-Jul-15 23:00N 43°21' W 001°55'0 0.0
2018-Jul-15 22:30N 43°21' W 001°55'0 0.0
2018-Jul-15 22:00N 43°21' W 001°55'0 0.0
2018-Jul-15 21:29N 43°21' W 001°55'0 0.1
2018-Jul-15 20:59N 43°21' W 001°55'0 0.1
2018-Jul-15 20:29N 43°21' W 001°55'0 0.0
2018-Jul-15 19:59N 43°21' W 001°55'0 0.0
2018-Jul-15 19:29N 43°21' W 001°55'0 0.1
2018-Jul-15 18:59N 43°21' W 001°55'0 0.0
2018-Jul-15 18:29N 43°21' W 001°55'0 0.0
2018-Jul-15 17:59N 43°21' W 001°55'0 0.0
2018-Jul-15 17:29N 43°21' W 001°56'0 0.0
2018-Jul-15 16:59N 43°21' W 001°55'0 0.0
2018-Jul-15 16:29N 43°21' W 001°55'0 0.0
2018-Jul-15 15:59N 43°21' W 001°55'0 0.0
2018-Jul-15 15:28N 43°21' W 001°55'0 0.0
2018-Jul-15 14:58N 43°21' W 001°56'0 0.0
2018-Jul-15 14:25N 43°21' W 001°55'0 0.0
2018-Jul-15 13:58N 43°21' W 001°55'0 0.1
2018-Jul-15 13:28N 43°21' W 001°56'0 0.0
2018-Jul-15 12:58N 43°21' W 001°56'0 0.0
2018-Jul-15 12:28N 43°21' W 001°56'0 0.0
2018-Jul-15 11:58N 43°21' W 001°56'0 0.0
2018-Jul-15 11:28N 43°21' W 001°56'0 0.0
2018-Jul-15 10:58N 43°21' W 001°56'0 0.0
2018-Jul-15 10:28N 43°21' W 001°56'0 0.0
2018-Jul-15 09:58N 43°21' W 001°56'0 0.0
2018-Jul-15 09:28N 43°21' W 001°56'0 0.0
2018-Jul-15 08:58N 43°21' W 001°56'0 0.1
2018-Jul-15 08:28N 43°21' W 001°56'0 0.1
2018-Jul-15 07:58N 43°21' W 001°56'0 0.0
2018-Jul-15 07:28N 43°21' W 001°56'0 0.0
2018-Jul-15 07:00N 43°21' W 001°56'0 0.0
2018-Jul-15 06:30N 43°21' W 001°56'0 0.0
2018-Jul-15 06:01N 43°21' W 001°56'0 0.1
2018-Jul-15 05:29N 43°21' W 001°56'0 0.1
2018-Jul-15 04:59N 43°21' W 001°56'0 0.1
2018-Jul-15 04:28N 43°21' W 001°56'0 0.1
2018-Jul-15 04:00N 43°21' W 001°56'0 0.1
2018-Jul-15 03:30N 43°21' W 001°56'0 0.1
2018-Jul-15 02:58N 43°21' W 001°56'0 0.1
2018-Jul-15 02:28N 43°21' W 001°56'0 0.9
2018-Jul-15 02:01N 43°21' W 001°56'3 6.7
2018-Jul-15 01:30N 43°22' W 002°00'510.4
2018-Jul-15 01:00N 43°24' W 002°07'510.7
2018-Jul-15 00:30N 43°26' W 002°14'510.7
2018-Jul-15 00:00N 43°27' W 002°21'510.3
2018-Jul-14 23:30N 43°29' W 002°28'510.2
2018-Jul-14 23:00N 43°31' W 002°34'510.0
2018-Jul-14 22:30N 43°32' W 002°41'510.3
2018-Jul-14 22:00N 43°34' W 002°48'510.4
2018-Jul-14 21:30N 43°36' W 002°54'510.1
2018-Jul-14 21:00N 43°37' W 003°01'5 9.8
2018-Jul-14 20:30N 43°37' W 003°08'5 9.6
2018-Jul-14 20:00N 43°38' W 003°15'5 9.7
2018-Jul-14 19:30N 43°38' W 003°21'510.0
2018-Jul-14 19:00N 43°39' W 003°28'5 9.8
2018-Jul-14 18:30N 43°39' W 003°35'5 9.1
2018-Jul-14 18:00N 43°40' W 003°41'5 9.4
2018-Jul-14 17:30N 43°40' W 003°48'5 9.4
2018-Jul-14 17:00N 43°41' W 003°54'5 9.4
2018-Jul-14 16:30N 43°41' W 004°01'5 9.7
2018-Jul-14 16:01N 43°42' W 004°07'5 9.6
2018-Jul-14 15:30N 43°42' W 004°14'5 9.6
2018-Jul-14 14:56N 43°43' W 004°21'21 9.8
2018-Jul-14 12:47N 43°45' W 004°50'3 9.6
2018-Jul-14 12:30N 43°45' W 004°54'15 9.6
2018-Jul-14 10:54N 43°46' W 005°15'4 9.3
2018-Jul-14 10:26N 43°47' W 005°21'5 9.3
2018-Jul-14 09:54N 43°47' W 005°28'5 9.6
2018-Jul-14 09:23N 43°47' W 005°35'4 9.6
2018-Jul-14 08:57N 43°48' W 005°41'5 9.3
2018-Jul-14 08:26N 43°49' W 005°47'4 9.3
2018-Jul-14 08:00N 43°49' W 005°53'  

Dump ship's entire track history